Hugo Giraldo

Chefscout - Independiente Medellin
2 Sep 2027
Donnerstag
Verarbeitung

Persönlichkeit

Anpassungsfähigkeit (19) Ehrgeiz (13) Kontroverse (15) Loyalität (10) Druck (5) Professionalität (7) Fairness (4) Temperament (15)

Profil

Trainerstil Demokratisch
Lizenz Kontinentale B
Entschlossenheit 9
Menschenführung 6
Motivation 10
Disziplin 11
Arbeitszufriedenheit
100%
Ermüdung
0%
Rolle Chefscout
Gehalt 96.9K p/W
Vertrag 14.03.2028

Leistung

Verhalten Gut
Trainingseffektivität
31%
Spielerentwicklung
65%
Verletzungsprävention
20%
Taktische Umsetzung
40%

Letzte Ereignisse

Nahm an einer Scouting-Besprechung teil jetzt
Empfahl ein Transferziel jetzt
Empfahl ein Transferziel jetzt
Empfahl ein Transferziel jetzt
Empfahl ein Transferziel 7T her
Empfahl ein Transferziel 7T her
Empfahl ein Transferziel 7T her
Nahm an einer Scouting-Besprechung teil 7T her

Aktuell beobachtet

273
Spieler Verein Status Fähigkeit Vertrauen Beobachtet Zuletzt beobachtet Letzte Stimme
Diego Martínez Jaguares Aktiv 124 / 124 44% 2 / 2m 21.07.2027 -
Kevin Tamayo Leones Aktiv 119 / 120 79% 1 28.06.2027 Befürworten
Kwadwo Baah Watford Aktiv 134 / 141 40% 2 26.06.2027 -
Marcus Edwards Burnley Aktiv 141 / 132 40% 2 26.06.2027 -
Guille Rosas Gijón Aktiv 147 / 141 40% 1 26.06.2027 -
Riley McGree Middlesbrough Aktiv 135 / 142 40% 2 22.06.2027 -
Mohamed-Ali Cho Hull City Aktiv 141 / 129 40% 2 22.06.2027 -
Andre Brooks Sheffield United Aktiv 133 / 132 40% 1 22.06.2027 -
Luis Vázquez Birmingham Aktiv 129 / 117 40% 1 15.06.2027 -
Nicolò Zaniolo Udinese Aktiv 144 / 155 40% 1 15.06.2027 -
Murphy Cooper Plymouth Argyle Aktiv 123 / 123 40% 1 08.06.2027 -
Federico Pereira Estudiantes Verhandlung 135 / 135 68% 1 01.06.2027 Befürworten
Facundo Torres LOSC Lille Aktiv 134 / 134 67% 1 01.06.2027 Befürworten
Bitello SC Freiburg Aktiv 135 / 135 68% 1 01.06.2027 Befürworten
Kostantis Tzolakis Hull City Aktiv 149 / 142 40% 7 29.05.2027 -
Michele Cerofolini Bari Aktiv 122 / 132 40% 4 29.05.2027 -
Maduka Okoye Udinese Aktiv 144 / 154 40% 1 29.05.2027 -
Christian Walton Ipswich Town Aktiv 132 / 141 40% 4 28.05.2027 -
Jonathan Klinsmann Cesena Aktiv 122 / 113 40% 2 28.05.2027 -
Robin Roefs Sunderland Aktiv 140 / 154 40% 2 27.05.2027 -
Lucas Bruera Carabobo Aktiv 120 / 122 40% 1 27.05.2027 -
Arijanet Murić Sassuolo Aktiv 137 / 132 40% 3 26.05.2027 -
Balázs Tóth Blackburn Rovers Aktiv 127 / 117 40% 3 26.05.2027 -
Luis Ingolotti Atlético Tucumán Aktiv 124 / 125 40% 1 26.05.2027 -
Mauro Silveira Junior Aktiv 124 / 128 40% 1 25.05.2027 -
Bento Al-Nassr Aktiv 139 / 130 40% 5 24.05.2027 -
Lorenzo Palmisani Frosinone Aktiv 130 / 122 40% 4 24.05.2027 -
Caoimhin Kelleher Brentford Aktiv 156 / 151 40% 4 23.05.2027 -
Mads Hermansen West Ham United Aktiv 138 / 139 40% 3 23.05.2027 -
Diego Romero Universitario Aktiv 129 / 134 40% 1 23.05.2027 -
Tomáš Frühwald Bohemians 1905 Aktiv 109 / 116 40% 1 23.05.2027 -
Nikola Vasilj Al-Diriyah Aktiv 141 / 137 40% 2 20.05.2027 -
Jean America de Cali Aktiv 127 / 120 40% 1 20.05.2027 -
Simone Scuffet Pisa Aktiv 124 / 140 40% 3 18.05.2027 -
Daniel Iversen Preston Aktiv 123 / 134 40% 3 16.05.2027 -
Ezequiel Centurión River Plate Aktiv 128 / 121 40% 1 16.05.2027 -
Tomás Marchiori Vélez Aktiv 127 / 129 40% 2 15.05.2027 -
Edoardo Motta Lazio Aktiv 127 / 133 40% 1 15.05.2027 -
Justin Bijlow Genoa Aktiv 155 / 157 40% 3 13.05.2027 -
Facundo Cambeses Racing Club Aktiv 128 / 124 40% 1 12.05.2027 -
Grégoire Coudert Burnley Aktiv 131 / 117 40% 1 11.05.2027 -
Amine Adli Bournemouth Aktiv 145 / 156 40% 5 10.05.2027 Beobachten
Jacob Widell Zetterström Derby County Aktiv 134 / 124 40% 1 10.05.2027 -
Iván Arboleda Sarmiento Aktiv 127 / 121 40% 1 10.05.2027 -
Derensili Sanches Fernandes Huddersfield Town Aktiv 125 / 129 40% 6 06.05.2027 -
Hany Mukhtar Spezia Verloren 145 / 132 40% 2 06.05.2027 Mehr Infos nötig
Welington Southampton Aktiv 132 / 115 40% 4 06.05.2027 -
Lewis Morgan SuperSport United Aktiv 128 / 124 40% 11 05.05.2027 -
Giorgi Chakvetadze Watford Aktiv 122 / 117 40% 2 05.05.2027 -
Hílder Arboleda Union Magdalena Aktiv 86 / 89 30% 1 / 1m 05.05.2027 -
Harry Wilson Leeds United Aktiv 139 / 130 40% 4 04.05.2027 -
David Turnbull Cardiff City Aktiv 122 / 133 40% 1 03.05.2027 -
Ryoya Morishita Blackburn Rovers Aktiv 132 / 117 40% 4 02.05.2027 -
Aaron Collins Milton Keynes Dons Aktiv 120 / 124 40% 1 02.05.2027 -
Morgan Whittaker Middlesbrough Aktiv 134 / 132 40% 1 02.05.2027 -
Kerem Aktürkoğlu Fenerbahce Aktiv 144 / 130 40% 3 30.04.2027 -
Filippo Manfrin Arzignano Aktiv 106 / 99 40% 2 30.04.2027 -
Davide Mastrantonio Latina Aktiv 91 / 92 40% 1 30.04.2027 -
Oleksandr Saputin Poltava Aktiv 113 / 128 40% 1 30.04.2027 -
Kevin Fulham Aktiv 145 / 162 40% 3 28.04.2027 -
Tom Fellows Southampton Aktiv 130 / 134 40% 6 28.04.2027 -
Mikkel Damsgaard Brentford Aktiv 147 / 132 40% 3 28.04.2027 -
Giacomo Raspadori Atalanta Aktiv 153 / 138 40% 2 28.04.2027 -
Egil Selvik Watford Aktiv 126 / 124 40% 1 28.04.2027 -
Isaac Price West Bromwich Albion Aktiv 125 / 141 40% 1 28.04.2027 -
Ali Ahmed Norwich City Aktiv 117 / 130 40% 3 23.04.2027 -
Jack McGlynn Stoke City Aktiv 135 / 131 40% 1 23.04.2027 -
Marco Asensio Fenerbahce Aktiv 165 / 168 40% 5 22.04.2027 -
Carlos Alcaraz Everton Aktiv 148 / 143 40% 2 22.04.2027 -
Felix Kyei Medeama Aktiv 89 / 84 40% 2 22.04.2027 -
Valerio Boffelli Cavese Aktiv 98 / 107 40% 2 22.04.2027 -
Facundo Vila Estudiantes Aktiv 101 / 99 40% 1 21.04.2027 -
Assane Diao Lazio Aktiv 139 / 146 40% 2 19.04.2027 -
Scott Twine Bristol City Aktiv 132 / 114 40% 2 18.04.2027 -
Jack Rudoni Coventry City Aktiv 128 / 130 40% 1 18.04.2027 -
Isaiah Jones Luton Town Aktiv 127 / 130 40% 4 17.04.2027 -
Nordi Mukiele Sunderland Aktiv 152 / 140 40% 1 16.04.2027 -
Ianis Hagi Alanyaspor Aktiv 125 / 113 40% 1 15.04.2027 -
Zian Flemming Ipswich Town Aktiv 130 / 138 40% 1 14.04.2027 -
James Trafford Leeds United Aktiv 150 / 145 40% 2 12.04.2027 -
Kiernan Dewsbury-Hall Everton Aktiv 144 / 151 40% 1 12.04.2027 -
Alexander Nübel Besiktas Aktiv 141 / 144 40% 1 12.04.2027 -
Ortwin De Wolf KV Mechelen Aktiv 122 / 106 40% 1 11.04.2027 -
Deniz Ertaş Konyaspor Aktiv 116 / 135 40% 1 11.04.2027 -
Adrien Truffert Bournemouth Aktiv 158 / 140 40% 2 10.04.2027 -
Mats Wieffer Brighton Aktiv 156 / 161 40% 1 08.04.2027 -
Leroy Sané Galatasaray Aktiv 160 / 161 40% 4 04.04.2027 -
Sorba Thomas Stoke City Aktiv 140 / 120 40% 3 03.04.2027 -
Carlos Vicente Birmingham Aktiv 139 / 139 40% 3 02.04.2027 -
Finn Azaz Southampton Aktiv 131 / 134 40% 2 01.04.2027 -
Léo Scienza Southampton Aktiv 133 / 151 40% 2 31.03.2027 -
Kwame Poku Queens Park Rangers Aktiv 120 / 118 40% 3 31.03.2027 -
Wladimiro Falcone Lecce Aktiv 142 / 131 40% 4 31.03.2027 -
Dean Henderson Crystal Palace Aktiv 144 / 138 40% 1 31.03.2027 -
Nikita Haikin Standard Liege Aktiv 132 / 142 40% 1 30.03.2027 -
Razvan Balasa Crvena Zvezda Aktiv 156 / 145 40% 5 28.03.2027 -
Adam Wharton Crystal Palace Aktiv 159 / 153 40% 2 27.03.2027 -
Nicolò Cambiaghi Bologna Aktiv 144 / 134 40% 1 27.03.2027 -
David Brooks Bournemouth Aktiv 142 / 138 40% 2 25.03.2027 -
Georges-Kévin Nkoudou Al-Diriyah Aktiv 128 / 130 40% 1 25.03.2027 -
Ryan Sessegnon Fulham Aktiv 141 / 148 40% 1 24.03.2027 -
Manor Solomon West Ham United Aktiv 139 / 150 40% 1 24.03.2027 -
Stanley Mills Oxford United Aktiv 116 / 129 40% 2 21.03.2027 -
Félix Lemaréchal Club Brugge Aktiv 141 / 143 40% 5 21.03.2027 -
Georginio Rutter Brighton Aktiv 142 / 135 40% 4 20.03.2027 -
Marko Ilić Westerlo Aktiv 122 / 129 40% 2 19.03.2027 -
Max O'Leary West Bromwich Albion Aktiv 122 / 138 40% 1 19.03.2027 -
Othmane Maamma Watford Aktiv 127 / 142 40% 3 18.03.2027 -
Kyrylo Fesiun Shakhtar Aktiv 116 / 137 40% 2 17.03.2027 -
Alex Meret Napoli Aktiv 162 / 165 40% 1 16.03.2027 -
Santiago Silva CFR Cluj Aktiv 117 / 119 40% 1 16.03.2027 -
Yusuke Matsuo Esteghlal Aktiv 121 / 111 40% 4 13.03.2027 -
Borja Sainz Fiorentina Aktiv 155 / 141 40% 3 13.03.2027 -
Eduardo Armenta Ufa Aktiv 99 / 91 40% 1 12.03.2027 -
Radek Vítek Middlesbrough Aktiv 129 / 131 40% 2 09.03.2027 -
Jamie Cumming Oxford United Aktiv 132 / 113 40% 1 08.03.2027 -
Leon Bailey Olympiacos Aktiv 151 / 129 40% 4 05.03.2027 -
Max Bird Birmingham Aktiv 127 / 118 40% 1 04.03.2027 -
Jan Koutný Sigma Olomouc Aktiv 112 / 116 40% 1 02.03.2027 -
Fedor Lapoukhov CSKA Sofia Aktiv 124 / 130 40% 1 02.03.2027 -
Mduduzi Shabalala Kaizer Chiefs Aktiv 116 / 100 40% 2 25.02.2027 -
Adriano Bertaccini Anderlecht Aktiv 123 / 108 40% 1 25.02.2027 -
Juan David Guillén Real Santander Aktiv 94 / 99 52% 1 / 1m 24.02.2027 -
Marquinhos Spartak Moscow Aktiv 135 / 143 40% 6 23.02.2027 -
Matt O'Riley Brighton Aktiv 152 / 156 40% 2 22.02.2027 -
Marcelo Allende Mamelodi Sundowns Aktiv 128 / 130 40% 6 16.02.2027 -
Tyrese Campbell Sheffield United Aktiv 136 / 124 40% 1 16.02.2027 -
Bertrand Traoré Sunderland Aktiv 136 / 136 40% 2 14.02.2027 -
Beau Reus Waasland-Beveren Aktiv 133 / 128 40% 1 14.02.2027 -
Óscar Mingueza Crystal Palace Aktiv 147 / 158 40% 1 11.02.2027 -
Zack Steffen Spartak Moscow Aktiv 126 / 128 40% 1 10.02.2027 -
Maílson Al-Taawoun Aktiv 133 / 114 40% 1 10.02.2027 -
Nahuel Ulariaga Hapoel Beer Sheva Aktiv 125 / 109 40% 3 06.02.2027 -
Tshepang Moremi Orlando Pirates Aktiv 116 / 124 40% 3 06.02.2027 -
Oston O'runov Persepolis Aktiv 127 / 132 40% 1 06.02.2027 -
Jhon Jhon Zenit Aktiv 129 / 137 40% 1 04.02.2027 -
Nicolas Schmid Portsmouth Aktiv 129 / 136 40% 1 04.02.2027 -
Michael Cooper Sheffield United Aktiv 130 / 125 40% 1 02.02.2027 -
Hélio Varela Maccabi Tel Aviv Aktiv 121 / 114 40% 1 02.02.2027 -
Callum Hudson-Odoi Nottingham Forest Aktiv 156 / 149 40% 1 24.01.2027 -
Ilias Sebaoui Sint-Truiden Aktiv 127 / 140 40% 1 24.01.2027 -
Oswin Appollis Orlando Pirates Aktiv 119 / 113 40% 1 22.01.2027 -
Filip Marschall Stevenage Aktiv 118 / 120 40% 1 22.01.2027 -
Francesco D'Alterio Ternana Aktiv 111 / 123 40% 1 22.01.2027 -
Mykyta Turbaievskyi Zorya Aktiv 109 / 125 40% 1 22.01.2027 -
Cesare Galeotti Trapani Aktiv 105 / 122 40% 1 21.01.2027 -
Tomáš Ladra Viktoria Plzen Aktiv 118 / 111 40% 1 19.01.2027 -
Kenny Tete Fulham Aktiv 150 / 130 40% 1 19.01.2027 -
Rubén Duarte Legia Aktiv 130 / 129 40% 2 16.01.2027 -
Louie Barry Sheffield Wednesday Aktiv 115 / 116 40% 1 16.01.2027 -
Sayfallah Ltaief Cracovia Aktiv 121 / 120 40% 1 16.01.2027 -
Ilias Chair Queens Park Rangers Aktiv 125 / 129 40% 1 14.01.2027 -
Christian Nørgaard Everton Aktiv 139 / 137 40% 1 10.01.2027 -
Mauro Arambarri River Plate Aktiv 156 / 154 40% 1 06.01.2027 -
Heorhii Yermakov Metalist Aktiv 109 / 131 40% 1 05.01.2027 -
Juan Pablo Gallego Dibba Aktiv 108 / 104 40% 2 03.01.2027 -
Tiago Palacios Estudiantes Aktiv 125 / 129 40% 2 02.01.2027 -
Alan Lescano Argentinos Juniors Aktiv 133 / 136 40% 2 01.01.2027 -
Juergen Elitím Bohemians 1905 Aktiv 115 / 125 40% 3 01.01.2027 -
Christian Krasnodar Aktiv 128 / 133 40% 1 30.12.2026 -
Víctor Ríos Atlas Aktiv 111 / 109 40% 1 26.12.2026 -
Aarón Molinas Defensa y Justicia Aktiv 129 / 135 40% 2 25.12.2026 -
Joaquín Gho Argentinos Juniors Aktiv 126 / 133 40% 3 25.12.2026 -
Aimé Omgba KAA Gent Aktiv 131 / 127 40% 1 25.12.2026 -
Cian Ashford Cardiff City Aktiv 120 / 114 40% 1 23.12.2026 -
Ramiro Ruiz Rodríguez Atlético Tucumán Aktiv 117 / 120 40% 10 22.12.2026 -
Jack Diamond Stockport County Aktiv 127 / 106 40% 1 21.12.2026 -
Williams Manyama SuperSport United Aktiv 119 / 114 40% 1 02.12.2026 -
Rodrigo Bogarín Barracas Central Aktiv 116 / 111 40% 2 28.11.2026 -
Jhonatan Candia Barracas Central Aktiv 121 / 114 40% 4 28.11.2026 -
Luciano Gondou CSKA Moscow Aktiv 139 / 127 40% 1 28.11.2026 -
Lorent Tolaj Plymouth Argyle Aktiv 112 / 121 40% 1 28.11.2026 -
Matías Zaracho Racing Club Aktiv 121 / 135 40% 1 28.11.2026 -
Marcelino Moreno Lanús Aktiv 129 / 135 40% 1 27.11.2026 -
Felipe Peña Biafore Lanús Aktiv 122 / 135 40% 1 27.11.2026 -
Gustavo Del Prete San Lorenzo Aktiv 117 / 126 40% 3 26.11.2026 -
Ammar Ramadan DAC Dunajska Streda Aktiv 128 / 133 40% 1 26.11.2026 -
Moussa Dembélé CR Belouizdad Aktiv 137 / 120 40% 1 26.11.2026 Mehr Infos nötig
Bamba Dieng Crvena Zvezda Aktiv 137 / 116 40% 1 23.11.2026 -
Manfred Ugalde Spartak Moscow Aktiv 138 / 122 40% 1 23.11.2026 -
Edwuin Cetré Estudiantes Aktiv 123 / 126 40% 1 22.11.2026 -
Diego Rossi Monterrey Aktiv 140 / 143 40% 10 21.11.2026 Beobachten
Alexis Cuello San Lorenzo Aktiv 122 / 131 40% 3 19.11.2026 -
Efraín Álvarez Guadalajara Aktiv 133 / 137 40% 4 18.11.2026 -
Antony Alonso Deportivo Riestra Aktiv 126 / 130 40% 3 17.11.2026 -
Mourad Tijuana Aktiv 123 / 114 40% 3 16.11.2026 -
Francisco González Metilli Belgrano Aktiv 123 / 118 40% 2 16.11.2026 -
Adonis Preciado Tijuana Aktiv 123 / 116 40% 1 16.11.2026 -
Ozziel Herrera Tigres Aktiv 129 / 123 40% 6 14.11.2026 -
Tomás González Piast Aktiv 121 / 114 40% 1 14.11.2026 -
Brian Rodríguez Club America Aktiv 124 / 130 40% 1 13.11.2026 -
Alejandro Zendejas Club America Aktiv 136 / 133 40% 2 10.11.2026 -
Jordi Cortizo Leon Aktiv 123 / 123 40% 2 10.11.2026 -
Jesús Ricardo Angulo Toluca Aktiv 134 / 134 40% 1 10.11.2026 -
Alejandro Melo Cibalia Aktiv 119 / 119 40% 1 10.11.2026 -
Nicolás Cordero Aldosivi Aktiv 118 / 111 40% 2 09.11.2026 -
Ricardo Marín Guadalajara Aktiv 121 / 117 40% 4 07.11.2026 -
Matko Miljevic Racing Club Aktiv 123 / 137 40% 2 07.11.2026 -
Carlos Rodríguez Cruz Azul Aktiv 131 / 133 40% 1 07.11.2026 -
Tomás Conechny Racing Club Aktiv 129 / 132 40% 2 05.11.2026 -
Yousef Salech Cardiff City Aktiv 116 / 117 40% 1 05.11.2026 -
Nicolás Castro Toluca Aktiv 125 / 134 40% 1 04.11.2026 -
Adalberto Carrasquilla Pumas UNAM Aktiv 129 / 133 40% 2 03.11.2026 -
Ezequiel Bullaude Santos Laguna Aktiv 125 / 128 40% 1 03.11.2026 -
Santiago Rodríguez Gimnasia y Esgrima Aktiv 124 / 122 40% 2 01.11.2026 -
Ulises Sánchez Gimnasia y Esgrima Aktiv 129 / 131 40% 1 01.11.2026 -
Orbelín Pineda Monterrey Aktiv 145 / 138 40% 1 01.11.2026 -
Rodrigo Echeverría Leon Aktiv 128 / 133 40% 1 30.10.2026 -
Adnan Courtois KV Oostende Aktiv 137 / 120 40% 2 28.10.2026 -
Enzo Copetti Rosario Central Aktiv 128 / 124 40% 1 27.10.2026 -
Agustín Módica Gimnasia y Esgrima Aktiv 118 / 129 40% 3 25.10.2026 -
Marcelo Estigarribia Unión de Santa Fe Aktiv 121 / 125 40% 3 24.10.2026 -
Luca Martínez Dupuy Godoy Cruz Aktiv 119 / 119 40% 1 23.10.2026 -
Bénie Traoré New York City Aktiv 127 / 116 40% 4 22.10.2026 -
Santiago Montiel Independiente Aktiv 128 / 120 40% 3 22.10.2026 -
Luís Esteves Atlas Aktiv 125 / 121 40% 1 22.10.2026 -
Emanuel Coronel Rosario Central Aktiv 130 / 134 40% 1 22.10.2026 -
Brian Gutiérrez Guadalajara Aktiv 133 / 132 40% 1 22.10.2026 -
Gonzalo Ríos Independiente Rivadavia Aktiv 115 / 128 40% 1 15.10.2026 -
Jaminton Campaz Rosario Central Aktiv 131 / 130 40% 1 13.10.2026 -
Mauro Valiente Estudiantes Aktiv 108 / 107 40% 1 12.10.2026 -
Tomás Molina Argentinos Juniors Aktiv 129 / 120 40% 2 10.10.2026 -
Martín Ortega Newell's Old Boys Aktiv 122 / 113 40% 1 10.10.2026 -
Juan Rocca Gimnasia y Tiro Aktiv 106 / 104 40% 1 10.10.2026 -
David Barbona Defensa y Justicia Aktiv 120 / 113 40% 1 10.10.2026 -
Ismael Díaz Leon Aktiv 127 / 119 40% 4 09.10.2026 -
Rodrigo González Mitre Aktiv 110 / 109 40% 1 08.10.2026 -
Alexander Díaz Deportivo Riestra Aktiv 123 / 119 40% 1 02.10.2026 -
Ignacio Ramírez Newell's Old Boys Aktiv 119 / 125 40% 1 01.10.2026 -
Gabriel Jesus Barcelona Aktiv 150 / 157 40% 3 29.09.2026 -
Leandro Suhr Boston River Aktiv 121 / 118 40% 1 29.09.2026 -
Luciano Cosentino Wanderers Aktiv 117 / 112 40% 4 27.09.2026 -
Juninho Pumas UNAM Aktiv 129 / 137 40% 4 26.09.2026 -
Hugo Cuypers Monterrey Aktiv 131 / 123 40% 4 23.09.2026 -
Dejan Joveljić Seattle Sounders Aktiv 124 / 134 40% 1 23.09.2026 -
Diego Gaitán Maipú Aktiv 113 / 105 40% 1 23.09.2026 -
Leandro Lozano Boca Juniors Aktiv 127 / 129 40% 1 23.09.2026 -
Alejo Cruz Juventud Aktiv 124 / 127 40% 1 21.09.2026 -
Siro Rosané Estudiantes Aktiv 117 / 121 40% 1 19.09.2026 -
Nazareno Colombo Racing Club Aktiv 124 / 130 40% 1 19.09.2026 -
Tomás Escalante Plaza Colonia Aktiv 122 / 118 40% 1 19.09.2026 -
Facundo Batista Penarol Aktiv 117 / 117 40% 1 17.09.2026 -
Agustín Paz Progreso Aktiv 112 / 115 40% 1 17.09.2026 -
Wessam Abou Ali Columbus Crew Aktiv 131 / 126 40% 1 17.09.2026 -
Duncan McGuire Houston Dynamo Aktiv 130 / 129 40% 4 15.09.2026 -
Josh Sargent Toronto FC Aktiv 129 / 134 40% 2 13.09.2026 -
Louis Munteanu DC United Aktiv 130 / 119 40% 2 12.09.2026 -
Manuel Ospina Cortulua Aktiv 120 / 122 40% 1 09.09.2026 -
Kévin Denkey FC Cincinnati Aktiv 128 / 136 40% 2 06.09.2026 -
Jordan Morris Seattle Sounders Aktiv 125 / 133 40% 1 04.09.2026 -
Cheikh Sabaly Vancouver Whitecaps Aktiv 118 / 127 40% 1 03.09.2026 -
Breel Embolo Atlanta United FC Aktiv 134 / 144 40% 1 03.09.2026 -
Theo Corbeanu Toronto FC Aktiv 118 / 117 40% 1 28.08.2026 -
Jorge Rivaldo Tigres Aktiv 117 / 120 30% 1 / 1m 26.08.2026 -
Marcus Ingvartsen San Diego Football Club Aktiv 128 / 127 40% 2 23.08.2026 -
Federico Girotti Alianza Lima Aktiv 122 / 114 40% 3 19.08.2026 -
Jesus Ferreira Seattle Sounders Aktiv 124 / 129 40% 1 15.08.2026 -
Harold Santiago Mosquera Cerro Porteno Aktiv 121 / 123 40% 1 14.08.2026 -
Juan Diego Jaramillo Depor Aktiv 102 / 102 30% 1 / 1m 12.08.2026 -
Juan Diego Mendoza Real Santander Aktiv 80 / 85 30% 1 / 1m 12.08.2026 -
João Klauss LA Galaxy Aktiv 120 / 132 40% 1 09.08.2026 -
Rodrigo Aguirre Tigres Aktiv 125 / 129 40% 1 07.08.2026 -
Lucas Souto Defensa y Justicia Aktiv 124 / 115 40% 1 07.08.2026 -
Ricardo Chávez Monterrey Aktiv 132 / 124 40% 1 07.08.2026 -
Federico Ricca Belgrano Aktiv 123 / 127 40% 1 07.08.2026 -
Matías Espinoza Libertad Aktiv 120 / 114 40% 1 06.08.2026 -
Salvador Reyes Leon Aktiv 122 / 121 40% 1 06.08.2026 -
Sam Surridge Nashville SC Aktiv 128 / 132 40% 1 05.08.2026 -
Álvaro Angulo Pumas UNAM Aktiv 125 / 115 40% 1 03.08.2026 -
Jhohan Romaña Leon Aktiv 127 / 127 40% 1 03.08.2026 -
Alejo Miro Patronato Aktiv 93 / 92 40% 1 02.08.2026 -
Urko Izeta Cádiz Aktiv 136 / 134 40% 1 01.08.2026 -
Eryc Castillo Alianza Lima Aktiv 114 / 120 40% 1 01.08.2026 -